sensor_id;sensor_type;location;lat;lon;timestamp;pressure;altitude;pressure_sealevel;temperature;humidity
60817;BME280;51921;51.518;-3.188;2022-07-23T00:00:38;101600.59;;;16.37;60.87
60817;BME280;51921;51.518;-3.188;2022-07-23T00:03:03;101596.50;;;16.23;61.71
60817;BME280;51921;51.518;-3.188;2022-07-23T00:05:29;101590.86;;;16.43;60.50
60817;BME280;51921;51.518;-3.188;2022-07-23T00:07:54;101591.50;;;17.38;58.52
60817;BME280;51921;51.518;-3.188;2022-07-23T00:10:19;101592.00;;;17.15;58.05
60817;BME280;51921;51.518;-3.188;2022-07-23T00:12:44;101593.80;;;17.10;58.94
60817;BME280;51921;51.518;-3.188;2022-07-23T00:15:10;101594.68;;;17.16;60.11
60817;BME280;51921;51.518;-3.188;2022-07-23T00:17:35;101594.37;;;16.48;62.37
60817;BME280;51921;51.518;-3.188;2022-07-23T00:20:00;101597.67;;;16.02;65.88
60817;BME280;51921;51.518;-3.188;2022-07-23T00:22:25;101598.79;;;15.16;67.39
60817;BME280;51921;51.518;-3.188;2022-07-23T00:24:51;101601.79;;;15.49;66.06
60817;BME280;51921;51.518;-3.188;2022-07-23T00:27:16;101604.91;;;15.58;65.62
60817;BME280;51921;51.518;-3.188;2022-07-23T00:29:41;101601.67;;;14.74;66.71
60817;BME280;51921;51.518;-3.188;2022-07-23T00:32:07;101597.04;;;15.72;64.57
60817;BME280;51921;51.518;-3.188;2022-07-23T00:34:32;101593.38;;;15.57;63.95
60817;BME280;51921;51.518;-3.188;2022-07-23T00:36:57;101590.27;;;15.22;65.12
60817;BME280;51921;51.518;-3.188;2022-07-23T00:39:23;101586.83;;;14.90;64.86
60817;BME280;51921;51.518;-3.188;2022-07-23T00:41:49;101579.34;;;16.56;61.99
60817;BME280;51921;51.518;-3.188;2022-07-23T00:44:15;101580.60;;;16.07;61.73
60817;BME280;51921;51.518;-3.188;2022-07-23T00:46:45;101574.26;;;17.05;59.25
60817;BME280;51921;51.518;-3.188;2022-07-23T00:49:04;101567.98;;;15.94;61.34
60817;BME280;51921;51.518;-3.188;2022-07-23T00:51:30;101568.65;;;16.14;60.78
60817;BME280;51921;51.518;-3.188;2022-07-23T00:53:55;101569.39;;;16.22;60.25
60817;BME280;51921;51.518;-3.188;2022-07-23T00:56:21;101571.59;;;16.31;59.75
60817;BME280;51921;51.518;-3.188;2022-07-23T00:58:46;101570.77;;;17.22;57.74
60817;BME280;51921;51.518;-3.188;2022-07-23T01:01:11;101576.68;;;17.48;56.47
60817;BME280;51921;51.518;-3.188;2022-07-23T01:03:37;101573.49;;;17.40;56.42
60817;BME280;51921;51.518;-3.188;2022-07-23T01:06:02;101567.33;;;16.49;57.83
60817;BME280;51921;51.518;-3.188;2022-07-23T01:08:28;101567.15;;;16.23;57.75
60817;BME280;51921;51.518;-3.188;2022-07-23T01:10:53;101567.83;;;16.55;58.09
60817;BME280;51921;51.518;-3.188;2022-07-23T01:13:18;101564.15;;;16.90;57.03
60817;BME280;51921;51.518;-3.188;2022-07-23T01:15:44;101567.47;;;17.61;55.31
60817;BME280;51921;51.518;-3.188;2022-07-23T01:18:09;101565.67;;;15.59;60.27
60817;BME280;51921;51.518;-3.188;2022-07-23T01:20:35;101569.65;;;16.10;59.36
60817;BME280;51921;51.518;-3.188;2022-07-23T01:23:00;101565.04;;;15.56;59.98
60817;BME280;51921;51.518;-3.188;2022-07-23T01:25:25;101569.55;;;15.29;60.53
60817;BME280;51921;51.518;-3.188;2022-07-23T01:27:52;101568.85;;;16.48;57.93
60817;BME280;51921;51.518;-3.188;2022-07-23T01:30:16;101569.60;;;15.26;60.03
60817;BME280;51921;51.518;-3.188;2022-07-23T01:32:41;101567.18;;;15.85;60.54
60817;BME280;51921;51.518;-3.188;2022-07-23T01:35:08;101572.69;;;15.19;61.84
60817;BME280;51921;51.518;-3.188;2022-07-23T01:37:32;101568.51;;;15.28;60.62
60817;BME280;51921;51.518;-3.188;2022-07-23T01:39:57;101571.75;;;16.48;58.20
60817;BME280;51921;51.518;-3.188;2022-07-23T01:42:24;101571.36;;;14.11;64.26
60817;BME280;51921;51.518;-3.188;2022-07-23T01:44:48;101573.13;;;15.15;61.74
60817;BME280;51921;51.518;-3.188;2022-07-23T01:47:14;101573.21;;;14.52;62.22
60817;BME280;51921;51.518;-3.188;2022-07-23T01:49:39;101576.44;;;15.10;61.36
60817;BME280;51921;51.518;-3.188;2022-07-23T01:52:05;101574.50;;;15.54;61.10
60817;BME280;51921;51.518;-3.188;2022-07-23T01:54:32;101572.09;;;14.94;61.82
60817;BME280;51921;51.518;-3.188;2022-07-23T01:56:56;101575.68;;;14.89;61.95
60817;BME280;51921;51.518;-3.188;2022-07-23T01:59:21;101573.78;;;15.34;60.47
60817;BME280;51921;51.518;-3.188;2022-07-23T02:01:47;101579.04;;;14.79;61.76
60817;BME280;51921;51.518;-3.188;2022-07-23T02:04:12;101585.84;;;15.23;60.72
60817;BME280;51921;51.518;-3.188;2022-07-23T02:06:37;101575.50;;;15.53;59.35
60817;BME280;51921;51.518;-3.188;2022-07-23T02:09:03;101568.25;;;15.46;59.82
60817;BME280;51921;51.518;-3.188;2022-07-23T02:11:28;101564.04;;;15.95;59.45
60817;BME280;51921;51.518;-3.188;2022-07-23T02:13:54;101569.72;;;14.79;60.87
60817;BME280;51921;51.518;-3.188;2022-07-23T02:16:19;101568.23;;;14.53;60.86
60817;BME280;51921;51.518;-3.188;2022-07-23T02:18:44;101563.59;;;15.21;59.80
60817;BME280;51921;51.518;-3.188;2022-07-23T02:21:09;101565.00;;;15.13;60.63
60817;BME280;51921;51.518;-3.188;2022-07-23T02:23:35;101570.38;;;15.46;59.62
60817;BME280;51921;51.518;-3.188;2022-07-23T02:26:00;101572.09;;;13.95;63.43
60817;BME280;51921;51.518;-3.188;2022-07-23T02:28:26;101577.52;;;14.64;61.79
60817;BME280;51921;51.518;-3.188;2022-07-23T02:30:51;101568.22;;;15.29;59.17
60817;BME280;51921;51.518;-3.188;2022-07-23T02:33:16;101559.31;;;15.39;59.08
60817;BME280;51921;51.518;-3.188;2022-07-23T02:35:42;101557.70;;;14.90;59.40
60817;BME280;51921;51.518;-3.188;2022-07-23T02:38:07;101554.18;;;16.04;58.07
60817;BME280;51921;51.518;-3.188;2022-07-23T02:40:32;101562.25;;;14.90;58.48
60817;BME280;51921;51.518;-3.188;2022-07-23T02:42:58;101566.31;;;14.51;59.55
60817;BME280;51921;51.518;-3.188;2022-07-23T02:45:23;101570.91;;;14.54;60.76
60817;BME280;51921;51.518;-3.188;2022-07-23T02:47:49;101570.01;;;14.08;61.92
60817;BME280;51921;51.518;-3.188;2022-07-23T02:50:14;101564.64;;;14.45;60.88
60817;BME280;51921;51.518;-3.188;2022-07-23T02:52:39;101557.53;;;15.29;58.42
60817;BME280;51921;51.518;-3.188;2022-07-23T02:55:06;101563.66;;;14.60;59.58
60817;BME280;51921;51.518;-3.188;2022-07-23T02:57:30;101565.29;;;14.70;59.47
60817;BME280;51921;51.518;-3.188;2022-07-23T02:59:56;101561.61;;;13.93;62.17
60817;BME280;51921;51.518;-3.188;2022-07-23T03:02:21;101560.14;;;15.00;59.26
60817;BME280;51921;51.518;-3.188;2022-07-23T03:04:47;101557.70;;;15.36;58.44
60817;BME280;51921;51.518;-3.188;2022-07-23T03:07:12;101556.44;;;16.37;55.93
60817;BME280;51921;51.518;-3.188;2022-07-23T03:09:38;101554.77;;;16.44;55.77
60817;BME280;51921;51.518;-3.188;2022-07-23T03:12:03;101554.69;;;15.99;56.02
60817;BME280;51921;51.518;-3.188;2022-07-23T03:14:28;101553.79;;;15.56;56.83
60817;BME280;51921;51.518;-3.188;2022-07-23T03:16:54;101562.33;;;14.92;57.86
60817;BME280;51921;51.518;-3.188;2022-07-23T03:19:19;101561.93;;;15.49;56.12
60817;BME280;51921;51.518;-3.188;2022-07-23T03:21:44;101560.43;;;15.67;56.16
60817;BME280;51921;51.518;-3.188;2022-07-23T03:24:10;101562.14;;;15.82;56.60
60817;BME280;51921;51.518;-3.188;2022-07-23T03:26:35;101563.90;;;16.23;56.52
60817;BME280;51921;51.518;-3.188;2022-07-23T03:29:01;101570.69;;;15.64;57.97
60817;BME280;51921;51.518;-3.188;2022-07-23T03:31:26;101571.32;;;16.25;56.90
60817;BME280;51921;51.518;-3.188;2022-07-23T03:33:51;101572.82;;;15.38;58.57
60817;BME280;51921;51.518;-3.188;2022-07-23T03:36:17;101576.78;;;15.62;57.69
60817;BME280;51921;51.518;-3.188;2022-07-23T03:38:42;101580.64;;;15.00;59.25
60817;BME280;51921;51.518;-3.188;2022-07-23T03:41:08;101580.07;;;15.19;58.69
60817;BME280;51921;51.518;-3.188;2022-07-23T03:43:33;101577.95;;;16.06;56.63
60817;BME280;51921;51.518;-3.188;2022-07-23T03:45:58;101570.13;;;16.39;55.64
60817;BME280;51921;51.518;-3.188;2022-07-23T03:48:24;101567.75;;;14.97;59.24
60817;BME280;51921;51.518;-3.188;2022-07-23T03:50:50;101563.79;;;14.92;59.60
60817;BME280;51921;51.518;-3.188;2022-07-23T03:53:15;101559.16;;;15.10;58.01
60817;BME280;51921;51.518;-3.188;2022-07-23T03:55:40;101549.06;;;16.14;56.74
60817;BME280;51921;51.518;-3.188;2022-07-23T03:58:06;101548.70;;;15.39;57.64
60817;BME280;51921;51.518;-3.188;2022-07-23T04:00:31;101542.27;;;15.44;56.81
60817;BME280;51921;51.518;-3.188;2022-07-23T04:02:57;101548.27;;;16.06;56.02
60817;BME280;51921;51.518;-3.188;2022-07-23T04:05:22;101546.04;;;15.90;55.88
60817;BME280;51921;51.518;-3.188;2022-07-23T04:07:48;101545.61;;;16.10;55.54
60817;BME280;51921;51.518;-3.188;2022-07-23T04:10:13;101547.35;;;15.93;55.71
60817;BME280;51921;51.518;-3.188;2022-07-23T04:12:38;101543.90;;;15.62;56.24
60817;BME280;51921;51.518;-3.188;2022-07-23T04:15:06;101541.97;;;16.23;55.29
60817;BME280;51921;51.518;-3.188;2022-07-23T04:17:29;101545.31;;;16.30;55.00
60817;BME280;51921;51.518;-3.188;2022-07-23T04:19:55;101543.14;;;16.88;54.54
60817;BME280;51921;51.518;-3.188;2022-07-23T04:22:20;101542.71;;;17.05;54.27
60817;BME280;51921;51.518;-3.188;2022-07-23T04:24:46;101545.45;;;16.33;54.68
60817;BME280;51921;51.518;-3.188;2022-07-23T04:27:11;101545.98;;;16.01;54.73
60817;BME280;51921;51.518;-3.188;2022-07-23T04:29:37;101543.10;;;15.47;56.60
60817;BME280;51921;51.518;-3.188;2022-07-23T04:32:02;101543.64;;;15.67;56.61
60817;BME280;51921;51.518;-3.188;2022-07-23T04:34:27;101548.42;;;15.43;56.76
60817;BME280;51921;51.518;-3.188;2022-07-23T04:36:54;101556.97;;;15.69;56.52
60817;BME280;51921;51.518;-3.188;2022-07-23T04:39:18;101560.21;;;15.21;57.81
60817;BME280;51921;51.518;-3.188;2022-07-23T04:41:44;101554.33;;;15.44;56.83
60817;BME280;51921;51.518;-3.188;2022-07-23T04:44:15;101558.51;;;15.33;57.01
60817;BME280;51921;51.518;-3.188;2022-07-23T04:46:34;101556.91;;;14.96;58.10
60817;BME280;51921;51.518;-3.188;2022-07-23T04:49:00;101555.81;;;16.39;55.09
60817;BME280;51921;51.518;-3.188;2022-07-23T04:51:26;101550.34;;;16.10;56.17
60817;BME280;51921;51.518;-3.188;2022-07-23T04:53:51;101545.64;;;15.54;56.14
60817;BME280;51921;51.518;-3.188;2022-07-23T04:56:16;101539.32;;;15.61;56.53
60817;BME280;51921;51.518;-3.188;2022-07-23T04:58:42;101533.55;;;15.70;56.21
60817;BME280;51921;51.518;-3.188;2022-07-23T05:01:07;101528.58;;;16.28;55.07
60817;BME280;51921;51.518;-3.188;2022-07-23T05:03:33;101531.42;;;15.95;55.93
60817;BME280;51921;51.518;-3.188;2022-07-23T05:05:58;101530.17;;;16.48;54.34
60817;BME280;51921;51.518;-3.188;2022-07-23T05:08:23;101532.90;;;16.33;54.28
60817;BME280;51921;51.518;-3.188;2022-07-23T05:10:49;101528.85;;;16.50;54.26
60817;BME280;51921;51.518;-3.188;2022-07-23T05:13:14;101523.89;;;16.58;54.20
60817;BME280;51921;51.518;-3.188;2022-07-23T05:15:40;101525.41;;;16.46;54.64
60817;BME280;51921;51.518;-3.188;2022-07-23T05:18:05;101522.44;;;15.70;56.62
60817;BME280;51921;51.518;-3.188;2022-07-23T05:20:30;101526.12;;;15.77;55.70
60817;BME280;51921;51.518;-3.188;2022-07-23T05:22:56;101526.84;;;16.43;55.17
60817;BME280;51921;51.518;-3.188;2022-07-23T05:25:21;101535.17;;;16.64;54.58
60817;BME280;51921;51.518;-3.188;2022-07-23T05:27:47;101535.29;;;16.95;53.67
60817;BME280;51921;51.518;-3.188;2022-07-23T05:30:12;101540.33;;;17.07;54.11
60817;BME280;51921;51.518;-3.188;2022-07-23T05:32:38;101547.21;;;17.09;53.44
60817;BME280;51921;51.518;-3.188;2022-07-23T05:35:04;101549.88;;;17.44;52.59
60817;BME280;51921;51.518;-3.188;2022-07-23T05:37:28;101548.94;;;18.39;49.69
60817;BME280;51921;51.518;-3.188;2022-07-23T05:39:54;101545.31;;;16.90;53.23
60817;BME280;51921;51.518;-3.188;2022-07-23T05:42:19;101545.93;;;17.46;52.37
60817;BME280;51921;51.518;-3.188;2022-07-23T05:44:51;101549.51;;;17.40;52.39
60817;BME280;51921;51.518;-3.188;2022-07-23T05:47:10;101549.84;;;17.56;52.34
60817;BME280;51921;51.518;-3.188;2022-07-23T05:49:37;101550.74;;;18.09;50.75
60817;BME280;51921;51.518;-3.188;2022-07-23T05:52:04;101550.94;;;17.65;52.30
60817;BME280;51921;51.518;-3.188;2022-07-23T05:54:26;101546.08;;;18.27;50.17
60817;BME280;51921;51.518;-3.188;2022-07-23T05:56:52;101539.90;;;17.74;51.50
60817;BME280;51921;51.518;-3.188;2022-07-23T05:59:17;101534.55;;;17.30;53.07
60817;BME280;51921;51.518;-3.188;2022-07-23T06:01:42;101533.03;;;17.90;52.27
60817;BME280;51921;51.518;-3.188;2022-07-23T06:04:08;101527.62;;;17.61;52.32
60817;BME280;51921;51.518;-3.188;2022-07-23T06:06:40;101525.16;;;17.09;54.04
60817;BME280;51921;51.518;-3.188;2022-07-23T06:08:59;101527.23;;;17.18;53.34
60817;BME280;51921;51.518;-3.188;2022-07-23T06:11:24;101526.53;;;17.59;52.41
60817;BME280;51921;51.518;-3.188;2022-07-23T06:13:50;101525.02;;;17.30;53.02
60817;BME280;51921;51.518;-3.188;2022-07-23T06:16:15;101526.81;;;18.17;51.28
60817;BME280;51921;51.518;-3.188;2022-07-23T06:18:40;101525.90;;;14.93;58.76
60817;BME280;51921;51.518;-3.188;2022-07-23T06:21:06;101530.14;;;17.29;55.00
60817;BME280;51921;51.518;-3.188;2022-07-23T06:23:31;101532.48;;;16.86;55.77
60817;BME280;51921;51.518;-3.188;2022-07-23T06:25:56;101530.76;;;16.08;56.45
60817;BME280;51921;51.518;-3.188;2022-07-23T06:28:29;101535.59;;;16.54;58.99
60817;BME280;51921;51.518;-3.188;2022-07-23T06:30:54;101536.86;;;16.74;57.20
60817;BME280;51921;51.518;-3.188;2022-07-23T06:33:13;101534.53;;;16.76;56.36
60817;BME280;51921;51.518;-3.188;2022-07-23T06:35:38;101531.34;;;16.38;58.20
60817;BME280;51921;51.518;-3.188;2022-07-23T06:38:03;101537.76;;;14.12;65.48
60817;BME280;51921;51.518;-3.188;2022-07-23T06:40:29;101537.37;;;16.80;59.84
60817;BME280;51921;51.518;-3.188;2022-07-23T06:42:54;101530.75;;;17.65;56.22
60817;BME280;51921;51.518;-3.188;2022-07-23T06:45:19;101533.48;;;17.18;55.73
60817;BME280;51921;51.518;-3.188;2022-07-23T06:47:44;101539.45;;;18.60;53.82
60817;BME280;51921;51.518;-3.188;2022-07-23T06:50:10;101543.28;;;18.90;52.37
60817;BME280;51921;51.518;-3.188;2022-07-23T06:52:35;101541.12;;;18.59;52.95
60817;BME280;51921;51.518;-3.188;2022-07-23T06:55:01;101543.02;;;18.96;52.16
60817;BME280;51921;51.518;-3.188;2022-07-23T06:57:26;101538.46;;;18.88;51.97
60817;BME280;51921;51.518;-3.188;2022-07-23T06:59:52;101534.21;;;15.74;58.32
60817;BME280;51921;51.518;-3.188;2022-07-23T07:02:24;101534.63;;;14.18;66.24
60817;BME280;51921;51.518;-3.188;2022-07-23T07:04:42;101535.13;;;14.51;66.18
60817;BME280;51921;51.518;-3.188;2022-07-23T07:07:07;101537.03;;;16.45;63.53
60817;BME280;51921;51.518;-3.188;2022-07-23T07:09:40;101539.74;;;17.44;60.72
60817;BME280;51921;51.518;-3.188;2022-07-23T07:11:58;101539.86;;;18.05;59.92
60817;BME280;51921;51.518;-3.188;2022-07-23T07:14:24;101540.92;;;18.79;60.13
60817;BME280;51921;51.518;-3.188;2022-07-23T07:16:49;101540.92;;;18.26;62.17
60817;BME280;51921;51.518;-3.188;2022-07-23T07:19:14;101545.25;;;18.38;62.73
60817;BME280;51921;51.518;-3.188;2022-07-23T07:21:40;101546.65;;;17.80;64.75
60817;BME280;51921;51.518;-3.188;2022-07-23T07:24:06;101548.31;;;17.28;63.22
60817;BME280;51921;51.518;-3.188;2022-07-23T07:26:31;101549.49;;;17.34;64.58
60817;BME280;51921;51.518;-3.188;2022-07-23T07:28:56;101552.11;;;18.06;64.14
60817;BME280;51921;51.518;-3.188;2022-07-23T07:31:22;101552.79;;;16.86;67.78
60817;BME280;51921;51.518;-3.188;2022-07-23T07:33:47;101551.26;;;17.48;64.73
60817;BME280;51921;51.518;-3.188;2022-07-23T07:36:13;101548.26;;;16.76;65.78
60817;BME280;51921;51.518;-3.188;2022-07-23T07:38:38;101545.10;;;17.63;65.05
60817;BME280;51921;51.518;-3.188;2022-07-23T07:41:05;101546.95;;;17.83;63.27
60817;BME280;51921;51.518;-3.188;2022-07-23T07:43:28;101549.14;;;18.12;64.34
60817;BME280;51921;51.518;-3.188;2022-07-23T07:45:54;101549.62;;;17.44;63.68
60817;BME280;51921;51.518;-3.188;2022-07-23T07:48:20;101547.23;;;16.73;65.51
60817;BME280;51921;51.518;-3.188;2022-07-23T07:50:51;101545.13;;;17.91;63.00
60817;BME280;51921;51.518;-3.188;2022-07-23T07:53:10;101546.30;;;18.93;61.16
60817;BME280;51921;51.518;-3.188;2022-07-23T07:55:35;101544.64;;;19.64;59.12
60817;BME280;51921;51.518;-3.188;2022-07-23T07:58:01;101546.41;;;18.71;60.56
60817;BME280;51921;51.518;-3.188;2022-07-23T08:00:27;101544.50;;;17.60;62.84
60817;BME280;51921;51.518;-3.188;2022-07-23T08:02:53;101548.37;;;18.36;62.50
60817;BME280;51921;51.518;-3.188;2022-07-23T08:05:26;101548.66;;;16.84;66.45
60817;BME280;51921;51.518;-3.188;2022-07-23T08:07:42;101550.25;;;17.47;64.92
60817;BME280;51921;51.518;-3.188;2022-07-23T08:10:15;101551.54;;;17.62;66.29
60817;BME280;51921;51.518;-3.188;2022-07-23T08:12:44;101552.11;;;16.82;68.89
60817;BME280;51921;51.518;-3.188;2022-07-23T08:14:59;101547.73;;;17.34;67.26
60817;BME280;51921;51.518;-3.188;2022-07-23T08:17:24;101549.19;;;17.41;66.47
60817;BME280;51921;51.518;-3.188;2022-07-23T08:19:57;101550.52;;;15.90;71.43
60817;BME280;51921;51.518;-3.188;2022-07-23T08:22:15;101551.36;;;16.02;72.51
60817;BME280;51921;51.518;-3.188;2022-07-23T08:24:40;101547.69;;;16.79;70.26
60817;BME280;51921;51.518;-3.188;2022-07-23T08:27:06;101547.82;;;17.28;68.54
60817;BME280;51921;51.518;-3.188;2022-07-23T08:29:31;101551.98;;;16.59;71.53
60817;BME280;51921;51.518;-3.188;2022-07-23T08:31:56;101553.38;;;16.35;70.46
60817;BME280;51921;51.518;-3.188;2022-07-23T08:34:22;101551.82;;;16.85;70.14
60817;BME280;51921;51.518;-3.188;2022-07-23T08:36:47;101550.50;;;17.41;69.70
60817;BME280;51921;51.518;-3.188;2022-07-23T08:39:13;101549.84;;;16.82;71.41
60817;BME280;51921;51.518;-3.188;2022-07-23T08:41:39;101546.84;;;17.84;68.36
60817;BME280;51921;51.518;-3.188;2022-07-23T08:44:07;101546.60;;;16.68;71.38
60817;BME280;51921;51.518;-3.188;2022-07-23T08:46:29;101546.03;;;16.96;70.76
60817;BME280;51921;51.518;-3.188;2022-07-23T08:48:54;101548.60;;;16.34;72.98
60817;BME280;51921;51.518;-3.188;2022-07-23T08:51:19;101550.17;;;17.34;70.52
60817;BME280;51921;51.518;-3.188;2022-07-23T08:53:45;101553.05;;;16.38;73.80
60817;BME280;51921;51.518;-3.188;2022-07-23T08:56:10;101549.57;;;17.78;70.64
60817;BME280;51921;51.518;-3.188;2022-07-23T08:58:36;101550.69;;;17.46;71.75
60817;BME280;51921;51.518;-3.188;2022-07-23T09:01:02;101546.06;;;16.18;74.85
60817;BME280;51921;51.518;-3.188;2022-07-23T09:03:28;101542.61;;;15.45;79.41
60817;BME280;51921;51.518;-3.188;2022-07-23T09:05:53;101545.46;;;16.49;78.11
60817;BME280;51921;51.518;-3.188;2022-07-23T09:08:26;101541.93;;;16.44;78.34
60817;BME280;51921;51.518;-3.188;2022-07-23T09:10:45;101542.59;;;16.14;80.33
60817;BME280;51921;51.518;-3.188;2022-07-23T09:13:24;101535.81;;;16.01;81.82
60817;BME280;51921;51.518;-3.188;2022-07-23T09:15:43;101539.91;;;15.42;83.89
60817;BME280;51921;51.518;-3.188;2022-07-23T09:17:59;101534.86;;;16.38;82.19
60817;BME280;51921;51.518;-3.188;2022-07-23T09:20:24;101537.85;;;16.94;79.28
60817;BME280;51921;51.518;-3.188;2022-07-23T09:22:50;101536.91;;;16.04;81.00
60817;BME280;51921;51.518;-3.188;2022-07-23T09:25:17;101538.65;;;17.58;76.63
60817;BME280;51921;51.518;-3.188;2022-07-23T09:27:53;101538.43;;;16.49;78.98
60817;BME280;51921;51.518;-3.188;2022-07-23T09:30:14;101538.04;;;15.87;82.65
60817;BME280;51921;51.518;-3.188;2022-07-23T09:32:31;101534.72;;;15.68;83.08
60817;BME280;51921;51.518;-3.188;2022-07-23T09:34:57;101536.92;;;16.43;83.23
60817;BME280;51921;51.518;-3.188;2022-07-23T09:37:22;101534.05;;;16.98;80.85
60817;BME280;51921;51.518;-3.188;2022-07-23T09:39:48;101534.44;;;16.23;81.95
60817;BME280;51921;51.518;-3.188;2022-07-23T09:42:16;101539.24;;;16.09;83.56
60817;BME280;51921;51.518;-3.188;2022-07-23T09:44:47;101538.51;;;16.20;85.07
60817;BME280;51921;51.518;-3.188;2022-07-23T09:47:11;101530.16;;;16.95;82.42
60817;BME280;51921;51.518;-3.188;2022-07-23T09:49:29;101528.14;;;17.07;81.16
60817;BME280;51921;51.518;-3.188;2022-07-23T09:51:56;101529.95;;;18.59;75.83
60817;BME280;51921;51.518;-3.188;2022-07-23T09:54:24;101528.54;;;16.75;78.82
60817;BME280;51921;51.518;-3.188;2022-07-23T09:56:47;101535.17;;;16.81;80.27
60817;BME280;51921;51.518;-3.188;2022-07-23T09:59:11;101531.88;;;17.04;79.32
60817;BME280;51921;51.518;-3.188;2022-07-23T10:01:36;101532.68;;;17.43;78.47
60817;BME280;51921;51.518;-3.188;2022-07-23T10:04:02;101533.37;;;17.13;79.36
60817;BME280;51921;51.518;-3.188;2022-07-23T10:06:28;101535.50;;;17.27;77.05
60817;BME280;51921;51.518;-3.188;2022-07-23T10:08:54;101539.81;;;17.12;77.21
60817;BME280;51921;51.518;-3.188;2022-07-23T10:11:18;101542.42;;;17.43;76.64
60817;BME280;51921;51.518;-3.188;2022-07-23T10:13:43;101540.63;;;17.09;76.89
60817;BME280;51921;51.518;-3.188;2022-07-23T10:16:09;101536.91;;;17.77;74.29
60817;BME280;51921;51.518;-3.188;2022-07-23T10:18:34;101529.52;;;17.04;77.43
60817;BME280;51921;51.518;-3.188;2022-07-23T10:21:00;101529.08;;;16.89;77.18
60817;BME280;51921;51.518;-3.188;2022-07-23T10:23:30;101528.69;;;17.45;74.29
60817;BME280;51921;51.518;-3.188;2022-07-23T10:25:57;101530.01;;;18.54;71.41
60817;BME280;51921;51.518;-3.188;2022-07-23T10:28:30;101531.76;;;19.07;68.48
60817;BME280;51921;51.518;-3.188;2022-07-23T10:30:47;101531.39;;;18.82;68.12
60817;BME280;51921;51.518;-3.188;2022-07-23T10:33:17;101534.49;;;18.37;68.21
60817;BME280;51921;51.518;-3.188;2022-07-23T10:35:37;101534.54;;;18.60;68.38
60817;BME280;51921;51.518;-3.188;2022-07-23T10:38:02;101529.91;;;17.75;70.59
60817;BME280;51921;51.518;-3.188;2022-07-23T10:40:23;101529.86;;;18.27;70.80
60817;BME280;51921;51.518;-3.188;2022-07-23T10:42:50;101528.70;;;18.38;69.95
60817;BME280;51921;51.518;-3.188;2022-07-23T10:45:24;101532.65;;;18.45;68.05
60817;BME280;51921;51.518;-3.188;2022-07-23T10:47:39;101526.81;;;18.46;69.45
60817;BME280;51921;51.518;-3.188;2022-07-23T10:50:17;101525.52;;;17.22;73.58
60817;BME280;51921;51.518;-3.188;2022-07-23T10:52:29;101527.07;;;17.78;72.65
60817;BME280;51921;51.518;-3.188;2022-07-23T10:54:56;101524.10;;;17.65;73.23
60817;BME280;51921;51.518;-3.188;2022-07-23T10:57:22;101527.85;;;17.86;71.67
60817;BME280;51921;51.518;-3.188;2022-07-23T11:02:20;101526.85;;;18.45;70.66
60817;BME280;51921;51.518;-3.188;2022-07-23T11:04:49;101522.40;;;18.70;69.59
60817;BME280;51921;51.518;-3.188;2022-07-23T11:07:07;101515.79;;;18.23;69.53
60817;BME280;51921;51.518;-3.188;2022-07-23T11:09:28;101520.72;;;18.68;68.99
60817;BME280;51921;51.518;-3.188;2022-07-23T11:16:46;101523.54;;;18.83;68.28
60817;BME280;51921;51.518;-3.188;2022-07-23T11:19:09;101521.54;;;18.73;67.93
60817;BME280;51921;51.518;-3.188;2022-07-23T11:21:45;101519.32;;;19.14;67.50
60817;BME280;51921;51.518;-3.188;2022-07-23T11:24:00;101519.02;;;18.43;69.09
60817;BME280;51921;51.518;-3.188;2022-07-23T11:28:50;101508.72;;;18.01;70.24
60817;BME280;51921;51.518;-3.188;2022-07-23T11:31:17;101513.65;;;18.99;67.52
60817;BME280;51921;51.518;-3.188;2022-07-23T11:33:41;101509.52;;;18.90;66.46
60817;BME280;51921;51.518;-3.188;2022-07-23T11:36:06;101500.20;;;20.04;64.96
60817;BME280;51921;51.518;-3.188;2022-07-23T11:38:32;101495.74;;;19.50;66.33
60817;BME280;51921;51.518;-3.188;2022-07-23T11:40:57;101495.65;;;18.90;67.68
60817;BME280;51921;51.518;-3.188;2022-07-23T11:43:23;101489.06;;;18.46;68.71
60817;BME280;51921;51.518;-3.188;2022-07-23T11:45:49;101489.05;;;18.88;67.20
60817;BME280;51921;51.518;-3.188;2022-07-23T11:48:17;101487.94;;;19.13;66.76
60817;BME280;51921;51.518;-3.188;2022-07-23T11:50:38;101498.11;;;19.29;65.99
60817;BME280;51921;51.518;-3.188;2022-07-23T11:53:04;101495.96;;;19.85;64.14
60817;BME280;51921;51.518;-3.188;2022-07-23T11:55:29;101497.95;;;20.28;63.77
60817;BME280;51921;51.518;-3.188;2022-07-23T11:57:55;101498.20;;;18.90;64.96
60817;BME280;51921;51.518;-3.188;2022-07-23T12:00:22;101505.43;;;19.48;65.10
60817;BME280;51921;51.518;-3.188;2022-07-23T12:02:47;101506.50;;;19.19;66.13
60817;BME280;51921;51.518;-3.188;2022-07-23T12:05:12;101500.16;;;20.79;62.47
60817;BME280;51921;51.518;-3.188;2022-07-23T12:07:38;101502.16;;;19.83;63.53
60817;BME280;51921;51.518;-3.188;2022-07-23T12:10:05;101504.49;;;19.01;65.25
60817;BME280;51921;51.518;-3.188;2022-07-23T12:12:27;101502.31;;;18.47;68.14
60817;BME280;51921;51.518;-3.188;2022-07-23T12:15:00;101507.07;;;19.04;66.97
60817;BME280;51921;51.518;-3.188;2022-07-23T12:17:32;101503.73;;;18.91;66.81
60817;BME280;51921;51.518;-3.188;2022-07-23T12:19:43;101503.86;;;18.69;66.15
60817;BME280;51921;51.518;-3.188;2022-07-23T12:22:09;101496.06;;;18.53;68.73
60817;BME280;51921;51.518;-3.188;2022-07-23T12:27:09;101492.76;;;18.30;70.39
60817;BME280;51921;51.518;-3.188;2022-07-23T12:29:35;101491.50;;;18.12;69.90
60817;BME280;51921;51.518;-3.188;2022-07-23T12:31:50;101492.44;;;18.16;69.52
60817;BME280;51921;51.518;-3.188;2022-07-23T12:34:15;101496.04;;;17.55;71.26
60817;BME280;51921;51.518;-3.188;2022-07-23T12:36:40;101507.65;;;17.99;69.75
60817;BME280;51921;51.518;-3.188;2022-07-23T12:39:06;101514.25;;;19.15;67.10
60817;BME280;51921;51.518;-3.188;2022-07-23T12:43:56;101503.05;;;18.08;70.91